createdAt,value
2022-08-17T00:01:55.786Z,21.85
2022-08-17T00:04:32.761Z,21.83
2022-08-17T00:07:09.968Z,21.79
2022-08-17T00:09:48.463Z,21.71
2022-08-17T00:12:44.340Z,21.64
2022-08-17T00:15:30.085Z,21.56
2022-08-17T00:18:58.206Z,21.51
2022-08-17T00:21:56.393Z,21.46
2022-08-17T00:24:36.885Z,21.41
2022-08-17T00:27:20.219Z,21.37
2022-08-17T00:29:51.305Z,21.34
2022-08-17T00:33:12.570Z,21.31
2022-08-17T00:35:27.978Z,21.27
2022-08-17T00:37:56.413Z,21.19
2022-08-17T00:40:44.934Z,21.12
2022-08-17T00:43:45.737Z,21.09
2022-08-17T00:46:35.011Z,21.07
2022-08-17T00:49:25.104Z,21.06
2022-08-17T00:52:11.632Z,21.07
2022-08-17T00:54:51.768Z,21.09
2022-08-17T00:57:31.223Z,21.10
2022-08-17T01:00:12.636Z,21.10
2022-08-17T01:02:58.645Z,21.10
2022-08-17T01:05:42.730Z,21.11
2022-08-17T01:08:19.458Z,21.10
2022-08-17T01:11:01.962Z,21.06
2022-08-17T01:13:52.289Z,21.03
2022-08-17T01:16:48.701Z,21.00
2022-08-17T01:19:34.191Z,20.94
2022-08-17T01:22:17.729Z,20.91
2022-08-17T01:24:57.080Z,20.87
2022-08-17T01:27:30.071Z,20.81
2022-08-17T01:30:00.471Z,20.77
2022-08-17T01:33:04.503Z,20.78
2022-08-17T01:35:49.251Z,20.81
2022-08-17T01:38:33.188Z,20.80
2022-08-17T01:41:33.393Z,20.74
2022-08-17T01:44:23.800Z,20.72
2022-08-17T01:46:59.713Z,20.72
2022-08-17T01:49:39.041Z,20.69
2022-08-17T01:52:40.710Z,20.61
2022-08-17T01:55:32.887Z,20.52
2022-08-17T01:58:26.725Z,20.45
2022-08-17T02:01:11.688Z,20.40
2022-08-17T02:03:59.396Z,20.39
2022-08-17T02:06:54.066Z,20.44
2022-08-17T02:09:29.994Z,20.48
2022-08-17T02:12:39.105Z,20.50
2022-08-17T02:15:02.787Z,20.48
2022-08-17T02:17:40.909Z,20.45
2022-08-17T02:20:14.113Z,20.40
2022-08-17T02:23:08.939Z,20.36
2022-08-17T02:25:53.177Z,20.35
2022-08-17T02:28:33.984Z,20.34
2022-08-17T02:31:19.694Z,20.32
2022-08-17T02:34:26.764Z,20.31
2022-08-17T02:37:15.329Z,20.31
2022-08-17T02:39:55.392Z,20.30
2022-08-17T02:42:38.912Z,20.29
2022-08-17T02:45:12.454Z,20.29
2022-08-17T02:47:46.674Z,20.30
2022-08-17T02:50:24.078Z,20.28
2022-08-17T02:53:04.567Z,20.25
2022-08-17T02:55:50.410Z,20.25
2022-08-17T02:58:34.514Z,20.26
2022-08-17T03:01:33.332Z,20.25
2022-08-17T03:04:03.213Z,20.19
2022-08-17T03:06:53.166Z,20.16
2022-08-17T03:09:31.942Z,20.13
2022-08-17T03:12:21.121Z,20.15
2022-08-17T03:15:07.225Z,20.11
2022-08-17T03:17:46.802Z,20.07
2022-08-17T03:20:18.093Z,20.09
2022-08-17T03:23:06.989Z,20.10
2022-08-17T03:25:49.838Z,20.06
2022-08-17T03:28:36.715Z,20.06
2022-08-17T03:31:22.660Z,20.06
2022-08-17T03:33:56.082Z,20.07
2022-08-17T03:36:36.747Z,20.01
2022-08-17T03:39:20.890Z,19.96
2022-08-17T03:42:03.498Z,19.94
2022-08-17T03:44:41.214Z,19.94
2022-08-17T03:47:27.991Z,19.92
2022-08-17T03:50:14.725Z,19.94
2022-08-17T03:53:08.909Z,19.97
2022-08-17T03:55:57.213Z,19.96
2022-08-17T03:58:29.338Z,19.93
2022-08-17T04:01:07.213Z,19.87
2022-08-17T04:03:57.750Z,19.85
2022-08-17T04:06:50.617Z,19.84
2022-08-17T04:09:24.689Z,19.85
2022-08-17T04:12:00.268Z,19.88
2022-08-17T04:15:00.516Z,19.94
2022-08-17T04:17:35.677Z,19.95
2022-08-17T04:20:15.730Z,19.99
2022-08-17T04:23:03.076Z,20.02
2022-08-17T04:25:44.310Z,20.01
2022-08-17T04:28:37.674Z,20.05
2022-08-17T04:31:12.347Z,20.08
2022-08-17T04:33:46.322Z,20.09
2022-08-17T04:36:17.049Z,20.13
2022-08-17T04:38:58.178Z,20.17
2022-08-17T04:41:44.742Z,20.19
2022-08-17T04:44:27.280Z,20.26
2022-08-17T04:47:26.435Z,20.32
2022-08-17T04:50:05.521Z,20.39
2022-08-17T04:52:46.073Z,20.46
2022-08-17T04:55:26.042Z,20.49
2022-08-17T04:58:11.454Z,20.52
2022-08-17T05:00:45.924Z,20.56
2022-08-17T05:03:19.023Z,20.61
2022-08-17T05:05:54.021Z,20.63
2022-08-17T05:08:22.098Z,20.64
2022-08-17T05:11:11.363Z,20.65
2022-08-17T05:13:50.934Z,20.69
2022-08-17T05:16:31.458Z,20.72
2022-08-17T05:19:31.664Z,20.76
2022-08-17T05:22:40.093Z,20.78
2022-08-17T05:25:49.275Z,20.81
2022-08-17T05:28:27.998Z,20.76
2022-08-17T05:31:13.102Z,20.74
2022-08-17T05:34:00.291Z,20.76
2022-08-17T05:36:41.658Z,20.82
2022-08-17T05:39:27.814Z,20.90
2022-08-17T05:42:16.498Z,20.96
2022-08-17T05:44:56.158Z,20.97
2022-08-17T05:47:33.907Z,21.02
2022-08-17T05:50:09.497Z,21.07
2022-08-17T05:52:57.541Z,21.09
2022-08-17T05:56:02.215Z,21.10
2022-08-17T05:58:46.202Z,21.08
2022-08-17T06:01:32.768Z,21.11
2022-08-17T06:04:27.254Z,21.23
2022-08-17T06:07:22.142Z,21.44
2022-08-17T06:10:13.448Z,21.63
2022-08-17T06:13:15.747Z,21.75
2022-08-17T06:16:33.270Z,21.81
2022-08-17T06:19:34.547Z,21.88
2022-08-17T06:22:13.104Z,21.98
2022-08-17T06:25:29.656Z,22.04
2022-08-17T06:28:02.520Z,22.11
2022-08-17T06:31:22.506Z,22.18
2022-08-17T06:34:21.431Z,22.31
2022-08-17T06:37:15.993Z,22.40
2022-08-17T06:39:57.968Z,22.48
2022-08-17T06:43:02.863Z,22.49
2022-08-17T06:46:06.635Z,22.53
2022-08-17T06:48:59.311Z,22.47
2022-08-17T06:51:36.583Z,22.44
2022-08-17T06:54:25.387Z,22.53
2022-08-17T06:57:14.431Z,22.67
2022-08-17T07:00:03.782Z,22.78
2022-08-17T07:02:57.196Z,22.89
2022-08-17T07:05:42.423Z,22.86
2022-08-17T07:08:35.571Z,22.77
2022-08-17T07:11:06.112Z,22.65
2022-08-17T07:13:41.171Z,22.66
2022-08-17T07:16:34.919Z,22.69
2022-08-17T07:19:13.679Z,22.73
2022-08-17T07:21:52.733Z,22.82
2022-08-17T07:24:37.674Z,22.88
2022-08-17T07:27:31.873Z,22.99
2022-08-17T07:30:26.225Z,23.14
2022-08-17T07:33:13.433Z,23.27
2022-08-17T07:35:57.418Z,23.36
2022-08-17T07:38:55.334Z,23.38
2022-08-17T07:41:53.129Z,23.53
2022-08-17T07:45:00.352Z,23.58
2022-08-17T07:47:55.850Z,23.64
2022-08-17T07:50:53.846Z,23.76
2022-08-17T07:56:34.786Z,23.93
2022-08-17T07:59:14.559Z,23.82
2022-08-17T08:01:44.872Z,23.88
2022-08-17T08:07:50.230Z,24.04
2022-08-17T08:10:30.383Z,24.18
2022-08-17T08:13:16.361Z,24.22
2022-08-17T08:15:58.980Z,24.33
2022-08-17T08:18:58.950Z,24.42
2022-08-17T08:21:47.411Z,24.55
2022-08-17T08:24:32.647Z,24.58
2022-08-17T08:27:27.078Z,24.46
2022-08-17T08:30:10.819Z,24.49
2022-08-17T08:32:57.572Z,24.53
2022-08-17T08:39:20.701Z,24.58
2022-08-17T08:42:16.171Z,24.67
2022-08-17T08:45:04.784Z,24.77
2022-08-17T08:47:38.958Z,24.78
2022-08-17T08:50:37.437Z,24.83
2022-08-17T08:53:26.023Z,24.85
2022-08-17T08:56:04.921Z,24.97
2022-08-17T08:58:58.589Z,25.09
2022-08-17T09:01:42.719Z,25.18
2022-08-17T09:04:28.687Z,25.38
2022-08-17T09:07:21.876Z,25.50
2022-08-17T09:10:18.390Z,25.68
2022-08-17T09:13:09.929Z,25.74
2022-08-17T09:16:06.648Z,25.86
2022-08-17T09:19:01.893Z,25.96
2022-08-17T09:21:49.302Z,26.09
2022-08-17T09:24:36.690Z,26.25
2022-08-17T09:27:36.327Z,26.45
2022-08-17T09:30:18.093Z,26.60
2022-08-17T09:32:54.926Z,26.64
2022-08-17T09:35:36.947Z,26.75
2022-08-17T09:38:32.563Z,26.89
2022-08-17T09:41:13.621Z,26.72
2022-08-17T09:43:57.559Z,26.59
2022-08-17T09:47:04.684Z,26.39
2022-08-17T09:50:07.139Z,26.25
2022-08-17T09:52:44.817Z,26.33
2022-08-17T09:55:23.284Z,26.45
2022-08-17T09:58:29.645Z,26.46
2022-08-17T10:01:11.513Z,26.25
2022-08-17T10:03:52.564Z,25.94
2022-08-17T10:06:45.653Z,25.71
2022-08-17T10:09:34.610Z,25.64
2022-08-17T10:12:21.081Z,25.72
2022-08-17T10:15:23.942Z,25.94
2022-08-17T10:18:01.032Z,25.91
2022-08-17T10:20:34.358Z,25.85
2022-08-17T10:24:08.382Z,25.97
2022-08-17T10:26:56.297Z,26.00
2022-08-17T10:30:02.887Z,26.01
2022-08-17T10:32:56.599Z,25.97
2022-08-17T10:36:00.790Z,25.91
2022-08-17T10:38:47.055Z,26.00
2022-08-17T10:41:58.618Z,26.05
2022-08-17T10:44:41.214Z,26.69
2022-08-17T10:47:16.227Z,27.45
2022-08-17T10:50:19.750Z,28.16
2022-08-17T10:52:53.678Z,28.79
2022-08-17T10:55:26.077Z,28.82
2022-08-17T10:58:20.991Z,28.88
2022-08-17T11:00:54.668Z,28.85
2022-08-17T11:03:35.240Z,29.04
2022-08-17T11:06:22.796Z,29.07
2022-08-17T11:09:18.899Z,29.01
2022-08-17T11:12:07.661Z,28.82
2022-08-17T11:14:58.029Z,28.49
2022-08-17T11:17:40.452Z,28.00
2022-08-17T11:20:34.465Z,27.70
2022-08-17T11:23:49.221Z,27.72
2022-08-17T11:26:46.708Z,28.22
2022-08-17T11:29:44.027Z,28.86
2022-08-17T11:32:37.511Z,29.38
2022-08-17T11:35:35.233Z,29.60
2022-08-17T11:38:16.366Z,29.34
2022-08-17T11:41:18.907Z,29.07
2022-08-17T11:44:05.213Z,29.06
2022-08-17T11:47:10.248Z,29.60
2022-08-17T11:50:08.985Z,30.38
2022-08-17T11:52:47.243Z,31.02
2022-08-17T11:55:45.930Z,31.38
2022-08-17T11:58:37.553Z,31.72
2022-08-17T12:01:39.968Z,31.84
2022-08-17T12:04:58.854Z,31.64
2022-08-17T12:07:51.753Z,31.95
2022-08-17T12:10:53.968Z,32.20
2022-08-17T12:13:38.597Z,32.14
2022-08-17T12:16:37.726Z,32.28
2022-08-17T12:19:23.622Z,32.13
2022-08-17T12:22:18.766Z,31.59
2022-08-17T12:24:57.908Z,31.83
2022-08-17T12:28:05.519Z,31.70
2022-08-17T12:31:12.386Z,31.53
2022-08-17T12:33:44.424Z,30.92
2022-08-17T12:36:30.828Z,30.63
2022-08-17T12:39:14.877Z,30.90
2022-08-17T12:42:02.543Z,31.20
2022-08-17T12:47:52.878Z,30.92
2022-08-17T12:50:44.406Z,31.44
2022-08-17T12:53:52.751Z,31.70
2022-08-17T12:56:29.171Z,31.86
2022-08-17T12:59:06.293Z,31.90
2022-08-17T13:02:01.399Z,32.10
2022-08-17T13:04:48.557Z,31.60
2022-08-17T13:07:59.688Z,30.89
2022-08-17T13:10:44.041Z,30.27
2022-08-17T13:13:21.358Z,30.03
2022-08-17T13:16:00.414Z,29.74
2022-08-17T13:18:50.382Z,29.63
2022-08-17T13:21:39.020Z,29.73
2022-08-17T13:24:43.920Z,29.77
2022-08-17T13:27:40.253Z,30.28
2022-08-17T13:30:21.956Z,30.84
2022-08-17T13:33:29.224Z,31.15
2022-08-17T13:36:52.014Z,31.14
2022-08-17T13:39:55.801Z,31.42
2022-08-17T13:42:53.081Z,31.45
2022-08-17T13:46:00.649Z,31.45
2022-08-17T13:48:33.837Z,31.16
2022-08-17T13:51:27.866Z,30.99
2022-08-17T13:54:23.657Z,30.79
2022-08-17T13:57:00.771Z,30.49
2022-08-17T13:59:53.225Z,30.29
2022-08-17T14:02:36.115Z,29.59
2022-08-17T14:05:29.979Z,29.28
2022-08-17T14:08:17.065Z,29.28
2022-08-17T14:11:01.128Z,29.17
2022-08-17T14:13:38.208Z,28.85
2022-08-17T14:16:35.229Z,28.65
2022-08-17T14:19:13.555Z,28.61
2022-08-17T14:22:08.574Z,28.54
2022-08-17T14:24:53.666Z,28.50
2022-08-17T14:27:47.474Z,28.51
2022-08-17T14:30:25.711Z,28.53
2022-08-17T14:33:09.110Z,28.54
2022-08-17T14:35:42.758Z,28.67
2022-08-17T14:38:48.029Z,28.81
2022-08-17T14:41:35.854Z,28.90
2022-08-17T14:44:14.778Z,28.94
2022-08-17T14:50:15.954Z,28.66
2022-08-17T14:53:11.529Z,28.73
2022-08-17T14:55:55.680Z,28.79
2022-08-17T14:58:41.022Z,28.61
2022-08-17T15:01:25.798Z,28.47
2022-08-17T15:04:01.237Z,28.42
2022-08-17T15:06:36.137Z,28.36
2022-08-17T15:09:06.560Z,28.45
2022-08-17T15:11:53.043Z,28.43
2022-08-17T15:14:36.812Z,28.43
2022-08-17T15:20:24.616Z,28.14
2022-08-17T15:23:13.207Z,28.10
2022-08-17T15:26:12.006Z,28.01
2022-08-17T15:28:49.984Z,27.95
2022-08-17T15:31:31.947Z,27.90
2022-08-17T15:34:08.098Z,27.91
2022-08-17T15:37:02.206Z,27.88
2022-08-17T15:39:55.164Z,27.83
2022-08-17T15:42:44.074Z,27.80
2022-08-17T15:45:30.904Z,27.84
2022-08-17T15:48:16.652Z,27.77
2022-08-17T15:51:03.011Z,27.67
2022-08-17T15:53:56.139Z,27.56
2022-08-17T15:56:49.345Z,27.52
2022-08-17T15:59:30.547Z,27.52
2022-08-17T16:03:44.837Z,27.50
2022-08-17T16:05:31.315Z,27.48
2022-08-17T16:08:15.897Z,27.45
2022-08-17T16:11:04.506Z,27.43
2022-08-17T16:13:41.722Z,27.41
2022-08-17T16:16:31.999Z,27.38
2022-08-17T16:19:39.084Z,27.32
2022-08-17T16:22:13.906Z,27.14
2022-08-17T16:24:57.471Z,27.06
2022-08-17T16:27:55.167Z,27.00
2022-08-17T16:30:39.956Z,26.95
2022-08-17T16:33:30.137Z,26.91
2022-08-17T16:36:28.041Z,26.85
2022-08-17T16:39:00.622Z,26.78
2022-08-17T16:41:47.862Z,26.69
2022-08-17T16:44:40.334Z,26.61
2022-08-17T16:47:19.269Z,26.56
2022-08-17T16:50:02.210Z,26.52
2022-08-17T16:53:00.796Z,26.46
2022-08-17T16:55:50.403Z,26.44
2022-08-17T16:58:39.348Z,26.40
2022-08-17T17:01:38.636Z,26.36
2022-08-17T17:04:36.910Z,26.28
2022-08-17T17:07:25.493Z,26.20
2022-08-17T17:10:02.032Z,26.12
2022-08-17T17:13:02.714Z,26.06
2022-08-17T17:16:12.223Z,26.00
2022-08-17T17:19:17.788Z,25.96
2022-08-17T17:22:30.705Z,25.89
2022-08-17T17:25:25.765Z,25.83
2022-08-17T17:28:17.179Z,25.77
2022-08-17T17:32:00.415Z,25.73
2022-08-17T17:34:41.702Z,25.65
2022-08-17T17:37:45.382Z,25.58
2022-08-17T17:40:29.140Z,25.49
2022-08-17T17:43:38.802Z,25.43
2022-08-17T17:46:27.871Z,25.34
2022-08-17T17:49:05.974Z,25.26
2022-08-17T17:52:18.408Z,25.18
2022-08-17T17:55:21.168Z,25.11
2022-08-17T17:58:41.683Z,25.03
2022-08-17T18:01:47.169Z,24.97
2022-08-17T18:04:40.204Z,24.94
2022-08-17T18:07:56.078Z,24.90
2022-08-17T18:10:41.195Z,24.90
2022-08-17T18:13:35.068Z,24.87
2022-08-17T18:16:35.342Z,24.81
2022-08-17T18:19:25.731Z,24.78
2022-08-17T18:22:16.286Z,24.71
2022-08-17T18:24:57.761Z,24.65
2022-08-17T18:27:36.668Z,24.58
2022-08-17T18:30:32.853Z,24.56
2022-08-17T18:33:24.659Z,24.50
2022-08-17T18:36:08.820Z,24.43
2022-08-17T18:38:47.500Z,24.38
2022-08-17T18:41:47.449Z,24.30
2022-08-17T18:44:40.887Z,24.23
2022-08-17T18:47:20.263Z,24.17
2022-08-17T18:50:43.889Z,24.13
2022-08-17T18:53:35.400Z,24.07
2022-08-17T18:56:34.111Z,24.02
2022-08-17T18:59:21.625Z,23.97
2022-08-17T19:02:27.419Z,23.94
2022-08-17T19:05:25.946Z,23.87
2022-08-17T19:08:13.417Z,23.83
2022-08-17T19:11:05.207Z,23.81
2022-08-17T19:14:14.271Z,23.79
2022-08-17T19:17:02.055Z,23.79
2022-08-17T19:19:58.904Z,23.77
2022-08-17T19:22:48.009Z,23.76
2022-08-17T19:25:30.741Z,23.73
2022-08-17T19:28:03.105Z,23.69
2022-08-17T19:30:51.793Z,23.65
2022-08-17T19:33:29.979Z,23.62
2022-08-17T19:36:21.179Z,23.59
2022-08-17T19:38:58.872Z,23.56
2022-08-17T19:41:55.847Z,23.54
2022-08-17T19:44:50.333Z,23.50
2022-08-17T19:47:54.227Z,23.45
2022-08-17T19:51:02.474Z,23.38
2022-08-17T19:54:08.477Z,23.32
2022-08-17T19:56:56.624Z,23.29
2022-08-17T19:59:48.296Z,23.22
2022-08-17T20:02:43.603Z,23.20
2022-08-17T20:06:14.276Z,23.21
2022-08-17T20:09:15.328Z,23.19
2022-08-17T20:12:15.391Z,23.20
2022-08-17T20:14:53.645Z,23.17
2022-08-17T20:17:50.847Z,23.14
2022-08-17T20:20:36.334Z,23.08
2022-08-17T20:23:32.332Z,23.04
2022-08-17T20:26:19.735Z,23.00
2022-08-17T20:29:37.601Z,22.96
2022-08-17T20:32:46.478Z,22.94
2022-08-17T20:35:39.982Z,22.90
2022-08-17T20:38:28.345Z,22.85
2022-08-17T20:41:31.026Z,22.82
2022-08-17T20:44:21.915Z,22.79
2022-08-17T20:47:11.652Z,22.75
2022-08-17T20:49:57.407Z,22.74
2022-08-17T20:52:44.450Z,22.74
2022-08-17T20:55:52.054Z,22.72
2022-08-17T20:58:49.386Z,22.73
2022-08-17T21:01:35.092Z,22.72
2022-08-17T21:04:41.582Z,22.69
2022-08-17T21:08:04.408Z,22.66
2022-08-17T21:14:18.727Z,22.61
2022-08-17T21:17:14.739Z,22.55
2022-08-17T21:20:40.038Z,22.53
2022-08-17T21:23:20.036Z,22.51
2022-08-17T21:26:18.923Z,22.47
2022-08-17T21:29:32.465Z,22.41
2022-08-17T21:32:19.029Z,22.34
2022-08-17T21:35:18.083Z,22.27
2022-08-17T21:38:00.993Z,22.26
2022-08-17T21:40:33.663Z,22.24
2022-08-17T21:43:27.595Z,22.23
2022-08-17T21:46:08.298Z,22.21
2022-08-17T21:49:04.772Z,22.19
2022-08-17T21:52:06.629Z,22.20
2022-08-17T21:55:10.056Z,22.26
2022-08-17T21:58:11.467Z,22.31
2022-08-17T22:01:05.380Z,22.30
2022-08-17T22:03:43.893Z,22.28
2022-08-17T22:06:36.094Z,22.25
2022-08-17T22:09:47.664Z,22.23
2022-08-17T22:12:53.817Z,22.18
2022-08-17T22:15:53.646Z,22.13
2022-08-17T22:18:32.753Z,22.08
2022-08-17T22:21:09.363Z,22.04
2022-08-17T22:24:20.387Z,21.99
2022-08-17T22:27:07.619Z,21.93
2022-08-17T22:29:43.970Z,21.87
2022-08-17T22:32:41.975Z,21.83
2022-08-17T22:36:05.186Z,21.82
2022-08-17T22:38:56.553Z,21.83
2022-08-17T22:41:32.440Z,21.84
2022-08-17T22:44:22.381Z,21.83
2022-08-17T22:46:52.899Z,21.83
2022-08-17T22:49:54.207Z,21.83
2022-08-17T22:52:34.593Z,21.79
2022-08-17T22:55:33.053Z,21.75
2022-08-17T22:58:28.596Z,21.70
2022-08-17T23:01:20.542Z,21.64
2022-08-17T23:04:18.744Z,21.59
2022-08-17T23:06:53.985Z,21.53
2022-08-17T23:09:25.715Z,21.49
2022-08-17T23:12:18.975Z,21.44
2022-08-17T23:15:10.777Z,21.41
2022-08-17T23:17:53.611Z,21.38
2022-08-17T23:20:25.052Z,21.36
2022-08-17T23:23:07.442Z,21.36
2022-08-17T23:25:53.278Z,21.37
2022-08-17T23:28:30.978Z,21.38
2022-08-17T23:31:09.189Z,21.36
2022-08-17T23:33:47.248Z,21.33
2022-08-17T23:36:28.919Z,21.30
2022-08-17T23:39:11.366Z,21.25
2022-08-17T23:41:56.279Z,21.20
2022-08-17T23:44:32.564Z,21.16
2022-08-17T23:47:19.445Z,21.12
2022-08-17T23:50:01.605Z,21.09
2022-08-17T23:52:41.213Z,21.05
2022-08-17T23:55:25.855Z,21.01
2022-08-17T23:58:07.982Z,21.01
